Time;durP1;ratioP1;P1;durP2;ratioP2;P2;SDS_P1;SDS_P2;PMS_P1;PMS_P2;Temp;Humidity;BMP_temperature;BMP_pressure;BME280_temperature;BME280_humidity;BME280_pressure;Samples;Min_cycle;Max_cycle;Signal;HPM_P1;HPM_P2
2021/09/22 00:00:18;;;;;;;5.80;2.85;;;;;;;;;;4898812;29;20044;-79
2021/09/22 00:02:44;;;;;;;4.68;2.45;;;;;;;;;;4902263;29;20036;-79
2021/09/22 00:05:11;;;;;;;4.05;2.30;;;;;;;;;;4905201;29;20032;-79
2021/09/22 00:07:37;;;;;;;5.53;2.72;;;;;;;;;;4913331;29;20254;-79
2021/09/22 00:10:03;;;;;;;5.90;2.53;;;;;;;;;;4912992;29;20072;-79
2021/09/22 00:12:29;;;;;;;8.35;2.83;;;;;;;;;;4932062;29;20423;-79
2021/09/22 00:14:55;;;;;;;7.55;2.40;;;;;;;;;;4932931;29;20035;-79
2021/09/22 00:17:21;;;;;;;10.05;2.75;;;;;;;;;;4906532;29;20073;-79
2021/09/22 00:19:47;;;;;;;4.07;2.10;;;;;;;;;;4901013;29;20072;-79
2021/09/22 00:22:13;;;;;;;6.00;2.20;;;;;;;;;;4908231;29;20079;-79
2021/09/22 00:24:39;;;;;;;4.03;2.42;;;;;;;;;;4913460;29;20139;-79
2021/09/22 00:27:05;;;;;;;4.63;2.70;;;;;;;;;;4912785;29;20064;-79
2021/09/22 00:29:31;;;;;;;8.27;2.80;;;;;;;;;;4912748;29;20342;-79
2021/09/22 00:31:58;;;;;;;6.60;3.00;;;;;;;;;;4913848;29;20032;-79
2021/09/22 00:34:24;;;;;;;6.18;3.25;;;;;;;;;;4916477;29;20119;-79
2021/09/22 00:36:50;;;;;;;7.03;2.78;;;;;;;;;;4907773;29;20120;-79
2021/09/22 00:39:16;;;;;;;7.50;3.03;;;;;;;;;;4895994;29;20552;-79
2021/09/22 00:41:43;;;;;;;7.50;2.85;;;;;;;;;;4897956;29;20550;-79
2021/09/22 00:44:09;;;;;;;5.38;2.60;;;;;;;;;;4904849;29;20468;-79
2021/09/22 00:46:35;;;;;;;4.25;2.20;;;;;;;;;;4907519;29;20032;-79
2021/09/22 00:49:01;;;;;;;6.03;2.38;;;;;;;;;;4902074;29;20597;-79
2021/09/22 00:51:27;;;;;;;4.47;2.35;;;;;;;;;;4905944;29;20807;-79
2021/09/22 00:53:53;;;;;;;7.28;2.15;;;;;;;;;;4902882;29;20040;-79
2021/09/22 00:56:21;;;;;;;6.03;2.25;;;;;;;;;;4897425;29;20064;-79
2021/09/22 00:58:47;;;;;;;8.95;3.15;;;;;;;;;;4914070;29;20107;-79
2021/09/22 01:01:13;;;;;;;7.72;3.33;;;;;;;;;;4915917;29;20489;-79
2021/09/22 01:03:39;;;;;;;6.28;3.70;;;;;;;;;;4910901;29;20088;-79
2021/09/22 01:06:05;;;;;;;6.75;3.60;;;;;;;;;;4915817;29;20900;-79
2021/09/22 01:08:32;;;;;;;10.48;4.03;;;;;;;;;;4912938;29;20143;-79
2021/09/22 01:10:59;;;;;;;8.60;3.78;;;;;;;;;;4897043;29;20029;-79
2021/09/22 01:13:25;;;;;;;8.05;4.68;;;;;;;;;;4906003;29;20087;-79
2021/09/22 01:15:51;;;;;;;9.57;4.82;;;;;;;;;;4910664;29;20064;-79
2021/09/22 01:18:19;;;;;;;11.50;5.10;;;;;;;;;;4903092;29;20063;-79
2021/09/22 01:20:46;;;;;;;7.78;4.65;;;;;;;;;;4915853;29;20681;-79
2021/09/22 01:23:13;;;;;;;10.88;3.67;;;;;;;;;;4915021;29;20567;-79
2021/09/22 01:25:40;;;;;;;14.88;5.25;;;;;;;;;;4915561;29;20030;-79
2021/09/22 01:28:07;;;;;;;10.95;5.35;;;;;;;;;;4915185;29;20040;-79
2021/09/22 01:30:33;;;;;;;11.05;5.20;;;;;;;;;;4913060;29;20473;-79
2021/09/22 01:33:01;;;;;;;11.82;6.35;;;;;;;;;;4895258;29;20048;-79
2021/09/22 01:35:27;;;;;;;11.75;6.22;;;;;;;;;;4904145;29;20490;-79
2021/09/22 01:37:53;;;;;;;9.10;5.57;;;;;;;;;;4896575;29;20041;-79
2021/09/22 01:40:19;;;;;;;10.95;5.53;;;;;;;;;;4930388;29;20043;-79
2021/09/22 01:42:47;;;;;;;10.82;6.40;;;;;;;;;;4933453;29;20040;-79
2021/09/22 01:45:15;;;;;;;11.88;5.53;;;;;;;;;;4918638;29;20032;-79
2021/09/22 01:47:41;;;;;;;12.65;6.50;;;;;;;;;;4915183;29;20051;-79
2021/09/22 01:50:12;;;;;;;12.35;6.05;;;;;;;;;;4927104;29;20047;-80
2021/09/22 01:52:38;;;;;;;12.73;6.00;;;;;;;;;;4934438;29;20054;-79
2021/09/22 01:55:05;;;;;;;9.75;5.38;;;;;;;;;;4933474;29;20035;-79
2021/09/22 01:57:31;;;;;;;7.38;4.95;;;;;;;;;;4917164;29;20043;-79
2021/09/22 01:59:57;;;;;;;12.07;4.68;;;;;;;;;;4915663;29;20551;-79
2021/09/22 02:02:23;;;;;;;9.40;4.90;;;;;;;;;;4925048;29;20028;-79
2021/09/22 02:04:49;;;;;;;8.98;4.30;;;;;;;;;;4908374;29;20043;-79
2021/09/22 02:07:15;;;;;;;9.80;5.13;;;;;;;;;;4899490;29;20037;-79
2021/09/22 02:09:42;;;;;;;8.30;5.15;;;;;;;;;;4900101;29;20080;-79
2021/09/22 02:12:08;;;;;;;7.88;5.03;;;;;;;;;;4915089;29;20154;-79
2021/09/22 02:14:34;;;;;;;9.05;5.03;;;;;;;;;;4915387;29;20028;-79
2021/09/22 02:17:00;;;;;;;11.77;5.40;;;;;;;;;;4933226;29;20097;-79
2021/09/22 02:19:26;;;;;;;8.90;4.97;;;;;;;;;;4933160;29;20412;-79
2021/09/22 02:21:52;;;;;;;6.88;4.47;;;;;;;;;;4896027;29;20049;-79
2021/09/22 02:24:18;;;;;;;6.15;3.70;;;;;;;;;;4895472;29;20361;-79
2021/09/22 02:26:45;;;;;;;7.07;3.97;;;;;;;;;;4895198;29;20396;-79
2021/09/22 02:29:11;;;;;;;5.95;3.60;;;;;;;;;;4895018;29;20025;-79
2021/09/22 02:31:37;;;;;;;5.63;3.65;;;;;;;;;;4921351;29;20052;-79
2021/09/22 02:34:03;;;;;;;8.02;3.80;;;;;;;;;;4932918;29;20034;-79
2021/09/22 02:36:29;;;;;;;6.15;4.15;;;;;;;;;;4931987;29;20040;-79
2021/09/22 02:38:55;;;;;;;6.10;3.67;;;;;;;;;;4933033;29;20142;-79
2021/09/22 02:41:21;;;;;;;7.50;4.85;;;;;;;;;;4932961;29;20043;-79
2021/09/22 02:43:47;;;;;;;7.07;4.43;;;;;;;;;;4916246;29;20039;-79
2021/09/22 02:46:13;;;;;;;9.82;5.30;;;;;;;;;;4924819;29;20570;-79
2021/09/22 02:48:39;;;;;;;10.40;6.72;;;;;;;;;;4914438;29;20075;-79
2021/09/22 02:51:05;;;;;;;10.32;7.20;;;;;;;;;;4913830;29;20101;-79
2021/09/22 02:53:33;;;;;;;12.25;7.00;;;;;;;;;;4913870;29;20040;-79
2021/09/22 02:55:59;;;;;;;12.68;7.38;;;;;;;;;;4914703;29;20036;-79
2021/09/22 02:58:25;;;;;;;12.77;7.45;;;;;;;;;;4932979;29;20036;-79
2021/09/22 03:00:51;;;;;;;11.13;6.88;;;;;;;;;;4933182;29;20050;-80
2021/09/22 03:03:17;;;;;;;12.73;7.97;;;;;;;;;;4932073;29;20032;-80
2021/09/22 03:05:44;;;;;;;9.48;6.75;;;;;;;;;;4928986;29;20387;-79
2021/09/22 03:08:10;;;;;;;11.43;7.45;;;;;;;;;;4913275;29;20036;-79
2021/09/22 03:10:36;;;;;;;9.07;6.32;;;;;;;;;;4913660;29;20043;-79
2021/09/22 03:13:02;;;;;;;8.77;6.47;;;;;;;;;;4912577;29;20050;-79
2021/09/22 03:15:28;;;;;;;9.57;6.30;;;;;;;;;;4913807;29;20835;-79
2021/09/22 03:17:55;;;;;;;12.00;6.40;;;;;;;;;;4913084;29;20063;-79
2021/09/22 03:20:22;;;;;;;9.85;6.47;;;;;;;;;;4913673;29;20446;-79
2021/09/22 03:22:48;;;;;;;8.90;6.22;;;;;;;;;;4911109;29;20040;-79
2021/09/22 03:25:14;;;;;;;10.77;6.82;;;;;;;;;;4913087;29;20062;-79
2021/09/22 03:27:40;;;;;;;10.07;6.00;;;;;;;;;;4913193;29;20480;-79
2021/09/22 03:30:07;;;;;;;12.38;6.10;;;;;;;;;;4913134;29;20040;-79
2021/09/22 03:32:33;;;;;;;14.60;6.28;;;;;;;;;;4920636;29;20135;-79
2021/09/22 03:34:59;;;;;;;11.68;5.65;;;;;;;;;;4913053;29;20075;-79
2021/09/22 03:37:26;;;;;;;9.82;5.60;;;;;;;;;;4914176;29;20036;-79
2021/09/22 03:39:52;;;;;;;14.20;6.95;;;;;;;;;;4914475;29;20638;-79
2021/09/22 03:42:18;;;;;;;16.05;6.93;;;;;;;;;;4913765;29;20156;-79
2021/09/22 03:44:44;;;;;;;9.13;6.00;;;;;;;;;;4912320;29;20051;-79
2021/09/22 03:47:10;;;;;;;11.52;6.07;;;;;;;;;;4913232;29;20040;-79
2021/09/22 03:49:36;;;;;;;13.13;6.72;;;;;;;;;;4895959;29;20036;-79
2021/09/22 03:52:02;;;;;;;10.63;7.15;;;;;;;;;;4922840;29;20056;-79
2021/09/22 03:54:28;;;;;;;11.18;6.30;;;;;;;;;;4909273;29;20111;-79
2021/09/22 03:56:54;;;;;;;12.57;6.20;;;;;;;;;;4905537;29;20114;-79
2021/09/22 03:59:20;;;;;;;11.00;6.65;;;;;;;;;;4904523;29;20040;-79
2021/09/22 04:01:46;;;;;;;15.00;6.35;;;;;;;;;;4913134;29;20092;-79
2021/09/22 04:04:12;;;;;;;10.13;6.18;;;;;;;;;;4913223;29;20031;-79
2021/09/22 04:06:39;;;;;;;10.20;5.32;;;;;;;;;;4915274;29;20348;-79
2021/09/22 04:09:05;;;;;;;10.95;6.20;;;;;;;;;;4916649;29;20028;-79
2021/09/22 04:11:31;;;;;;;10.90;5.47;;;;;;;;;;4898046;29;20037;-79
2021/09/22 04:13:57;;;;;;;13.63;6.25;;;;;;;;;;4897762;29;20441;-79
2021/09/22 04:16:23;;;;;;;9.85;5.70;;;;;;;;;;4913962;29;20041;-79
2021/09/22 04:18:49;;;;;;;10.93;5.78;;;;;;;;;;4916697;29;20047;-79
2021/09/22 04:21:15;;;;;;;9.35;6.13;;;;;;;;;;4915828;29;20032;-79
2021/09/22 04:23:41;;;;;;;13.32;6.18;;;;;;;;;;4916237;29;20043;-80
2021/09/22 04:26:07;;;;;;;9.07;6.10;;;;;;;;;;4917697;29;20036;-79
2021/09/22 04:28:33;;;;;;;8.77;5.63;;;;;;;;;;4916170;29;20036;-79
2021/09/22 04:30:59;;;;;;;12.63;6.30;;;;;;;;;;4916023;29;20127;-79
2021/09/22 04:33:25;;;;;;;13.00;6.32;;;;;;;;;;4929615;29;20101;-79
2021/09/22 04:35:53;;;;;;;13.73;5.93;;;;;;;;;;4926208;29;20468;-79
2021/09/22 04:38:19;;;;;;;12.57;5.65;;;;;;;;;;4916405;29;20083;-79
2021/09/22 04:40:45;;;;;;;9.93;5.75;;;;;;;;;;4912881;29;20479;-79
2021/09/22 04:43:11;;;;;;;10.82;6.57;;;;;;;;;;4902775;29;20036;-79
2021/09/22 04:45:37;;;;;;;8.50;5.68;;;;;;;;;;4915047;29;20581;-79
2021/09/22 04:48:03;;;;;;;10.85;5.60;;;;;;;;;;4914866;29;20043;-79
2021/09/22 04:50:29;;;;;;;11.48;5.95;;;;;;;;;;4906722;29;20080;-79
2021/09/22 04:52:56;;;;;;;10.02;5.97;;;;;;;;;;4912009;29;20044;-79
2021/09/22 04:55:22;;;;;;;9.50;5.93;;;;;;;;;;4914292;29;20390;-79
2021/09/22 04:57:48;;;;;;;9.75;5.68;;;;;;;;;;4919934;29;20083;-79
2021/09/22 05:00:14;;;;;;;13.10;7.03;;;;;;;;;;4920573;29;20036;-79
2021/09/22 05:02:40;;;;;;;11.25;6.78;;;;;;;;;;4915087;29;20375;-79
2021/09/22 05:05:06;;;;;;;10.05;6.20;;;;;;;;;;4922330;29;20042;-79
2021/09/22 05:07:32;;;;;;;10.57;6.30;;;;;;;;;;4913033;29;20060;-79
2021/09/22 05:09:58;;;;;;;8.27;5.90;;;;;;;;;;4916184;29;20166;-79
2021/09/22 05:12:24;;;;;;;9.85;5.80;;;;;;;;;;4913906;29;20036;-79
2021/09/22 05:14:50;;;;;;;10.15;6.25;;;;;;;;;;4911103;29;20035;-79
2021/09/22 05:17:16;;;;;;;10.57;5.57;;;;;;;;;;4915674;29;20063;-79
2021/09/22 05:19:42;;;;;;;10.77;6.20;;;;;;;;;;4916390;29;20052;-79
2021/09/22 05:22:08;;;;;;;12.00;6.50;;;;;;;;;;4916230;29;20487;-79
2021/09/22 05:24:35;;;;;;;10.80;6.25;;;;;;;;;;4916281;29;20115;-79
2021/09/22 05:27:01;;;;;;;12.57;6.30;;;;;;;;;;4915685;29;20044;-79
2021/09/22 05:29:26;;;;;;;11.73;6.20;;;;;;;;;;4912593;29;20024;-79
2021/09/22 05:31:52;;;;;;;9.18;5.32;;;;;;;;;;4909824;29;20755;-79
2021/09/22 05:34:19;;;;;;;12.13;6.28;;;;;;;;;;4915225;29;20047;-80
2021/09/22 05:36:45;;;;;;;10.23;5.93;;;;;;;;;;4924321;29;20043;-79
2021/09/22 05:39:11;;;;;;;12.75;5.57;;;;;;;;;;4915033;29;20032;-79
2021/09/22 05:41:37;;;;;;;8.23;4.85;;;;;;;;;;4915631;29;20040;-80
2021/09/22 05:44:05;;;;;;;10.15;5.50;;;;;;;;;;4907196;29;20028;-79
2021/09/22 05:46:31;;;;;;;13.20;6.82;;;;;;;;;;4911746;29;20036;-79
2021/09/22 05:48:57;;;;;;;12.27;7.57;;;;;;;;;;4914969;29;20024;-79
2021/09/22 05:51:23;;;;;;;19.75;8.55;;;;;;;;;;4912832;29;20091;-79
2021/09/22 05:53:49;;;;;;;17.73;8.20;;;;;;;;;;4916801;29;20073;-80
2021/09/22 05:56:15;;;;;;;14.55;6.97;;;;;;;;;;4919766;29;20051;-80
2021/09/22 05:58:41;;;;;;;14.60;7.57;;;;;;;;;;4914367;29;20044;-80
2021/09/22 06:01:07;;;;;;;15.40;8.23;;;;;;;;;;4914939;29;20039;-79
2021/09/22 06:03:34;;;;;;;22.90;9.40;;;;;;;;;;4914669;29;20056;-80
2021/09/22 06:06:00;;;;;;;17.75;10.38;;;;;;;;;;4914707;29;20474;-79
2021/09/22 06:08:26;;;;;;;20.23;10.48;;;;;;;;;;4913916;29;20036;-79
2021/09/22 06:10:52;;;;;;;16.83;10.63;;;;;;;;;;4914525;29;20594;-80
2021/09/22 06:13:19;;;;;;;18.80;11.13;;;;;;;;;;4911426;29;20075;-79
2021/09/22 06:15:45;;;;;;;17.80;9.75;;;;;;;;;;4913817;29;20407;-79
2021/09/22 06:18:11;;;;;;;19.67;10.23;;;;;;;;;;4917680;29;20035;-79
2021/09/22 06:20:37;;;;;;;17.30;9.50;;;;;;;;;;4915074;29;20898;-80
2021/09/22 06:23:03;;;;;;;18.98;9.32;;;;;;;;;;4909680;29;20028;-79
2021/09/22 06:25:29;;;;;;;18.10;9.15;;;;;;;;;;4914491;29;20036;-80
2021/09/22 06:27:55;;;;;;;13.55;8.60;;;;;;;;;;4917136;29;20032;-79
2021/09/22 06:30:21;;;;;;;12.65;5.32;;;;;;;;;;4916383;29;20036;-79
2021/09/22 06:32:47;;;;;;;16.17;7.25;;;;;;;;;;4913066;29;20555;-80
2021/09/22 06:35:13;;;;;;;17.48;8.77;;;;;;;;;;4900905;29;20044;-79
2021/09/22 06:37:39;;;;;;;17.52;8.23;;;;;;;;;;4910290;29;20036;-79
2021/09/22 06:40:06;;;;;;;18.85;8.57;;;;;;;;;;4911841;29;20819;-80
2021/09/22 06:42:32;;;;;;;16.23;8.48;;;;;;;;;;4911655;29;20040;-79
2021/09/22 06:44:58;;;;;;;24.10;10.30;;;;;;;;;;4904391;29;20037;-80
2021/09/22 06:47:24;;;;;;;20.70;9.90;;;;;;;;;;4908030;29;20036;-80
2021/09/22 06:49:50;;;;;;;18.52;8.80;;;;;;;;;;4912519;29;20706;-79
2021/09/22 06:52:16;;;;;;;17.98;8.40;;;;;;;;;;4909281;29;20068;-79
2021/09/22 06:54:42;;;;;;;16.52;9.35;;;;;;;;;;4904919;29;20111;-79
2021/09/22 06:57:08;;;;;;;16.52;8.25;;;;;;;;;;4909356;29;20123;-80
2021/09/22 06:59:35;;;;;;;17.50;7.68;;;;;;;;;;4913145;29;20035;-79
2021/09/22 07:02:01;;;;;;;15.82;7.20;;;;;;;;;;4913607;29;20040;-80
2021/09/22 07:04:27;;;;;;;12.95;6.35;;;;;;;;;;4912983;29;20035;-80
2021/09/22 07:06:53;;;;;;;15.73;7.00;;;;;;;;;;4911318;29;20063;-79
2021/09/22 07:09:19;;;;;;;15.20;7.40;;;;;;;;;;4907978;29;20068;-79
2021/09/22 07:11:45;;;;;;;12.48;6.85;;;;;;;;;;4913592;29;20044;-79
2021/09/22 07:14:11;;;;;;;15.60;7.97;;;;;;;;;;4912684;29;20444;-79
2021/09/22 07:16:37;;;;;;;16.42;7.57;;;;;;;;;;4912911;29;20036;-79
2021/09/22 07:19:03;;;;;;;14.73;7.50;;;;;;;;;;4901561;29;20404;-79
2021/09/22 07:21:29;;;;;;;14.52;6.82;;;;;;;;;;4910543;29;20039;-80
2021/09/22 07:23:55;;;;;;;15.55;7.82;;;;;;;;;;4912291;29;20036;-79
2021/09/22 07:26:21;;;;;;;9.68;6.38;;;;;;;;;;4907309;29;20884;-79
2021/09/22 07:28:47;;;;;;;15.48;7.32;;;;;;;;;;4900402;29;20114;-80
2021/09/22 07:31:13;;;;;;;12.73;7.80;;;;;;;;;;4909037;29;20361;-79
2021/09/22 07:33:39;;;;;;;15.57;7.53;;;;;;;;;;4912074;29;20391;-79
2021/09/22 07:36:07;;;;;;;15.32;8.00;;;;;;;;;;4909247;29;20040;-79
2021/09/22 07:38:33;;;;;;;11.18;8.27;;;;;;;;;;4911941;29;20043;-79
2021/09/22 07:40:59;;;;;;;11.70;7.78;;;;;;;;;;4903096;29;20028;-80
2021/09/22 07:43:25;;;;;;;12.75;7.78;;;;;;;;;;4916795;29;20550;-79
2021/09/22 07:45:51;;;;;;;12.75;7.57;;;;;;;;;;4898887;29;20032;-80
2021/09/22 07:48:17;;;;;;;12.52;7.38;;;;;;;;;;4904728;29;20263;-79
2021/09/22 07:50:43;;;;;;;14.10;8.55;;;;;;;;;;4903224;29;20472;-79
2021/09/22 07:53:09;;;;;;;15.23;8.45;;;;;;;;;;4916826;29;20042;-79
2021/09/22 07:55:35;;;;;;;15.07;7.43;;;;;;;;;;4909340;29;20123;-80
2021/09/22 07:58:02;;;;;;;18.30;7.55;;;;;;;;;;4915996;29;20391;-80
2021/09/22 08:00:28;;;;;;;12.52;6.97;;;;;;;;;;4908303;29;20074;-79
2021/09/22 08:02:54;;;;;;;12.98;7.75;;;;;;;;;;4916127;29;20090;-80
2021/09/22 08:05:20;;;;;;;13.20;7.18;;;;;;;;;;4916286;29;20032;-80
2021/09/22 08:07:46;;;;;;;15.40;7.47;;;;;;;;;;4912455;29;20072;-80
2021/09/22 08:10:13;;;;;;;15.85;7.72;;;;;;;;;;4913118;29;20066;-79
2021/09/22 08:12:39;;;;;;;11.35;6.53;;;;;;;;;;4905990;29;20044;-79
2021/09/22 08:15:06;;;;;;;9.18;6.88;;;;;;;;;;4917439;29;20070;-80
2021/09/22 08:17:32;;;;;;;9.48;6.65;;;;;;;;;;4914055;29;20462;-79
2021/09/22 08:19:58;;;;;;;12.25;7.30;;;;;;;;;;4916043;29;20036;-79
2021/09/22 08:22:24;;;;;;;18.08;7.85;;;;;;;;;;4911329;29;20369;-80
2021/09/22 08:24:50;;;;;;;14.07;7.30;;;;;;;;;;4913654;29;20036;-80
2021/09/22 08:27:16;;;;;;;15.68;7.57;;;;;;;;;;4915815;29;20028;-79
2021/09/22 08:29:42;;;;;;;10.95;7.47;;;;;;;;;;4914697;29;20036;-79
2021/09/22 08:32:08;;;;;;;12.55;8.27;;;;;;;;;;4915972;29;20071;-79
2021/09/22 08:34:34;;;;;;;14.88;7.90;;;;;;;;;;4916563;29;20071;-79
2021/09/22 08:37:01;;;;;;;11.88;8.05;;;;;;;;;;4912050;29;20871;-80
2021/09/22 08:39:31;;;;;;;10.60;7.85;;;;;;;;;;4914218;29;20548;-80
2021/09/22 08:41:57;;;;;;;13.95;7.97;;;;;;;;;;4910644;29;20797;-80
2021/09/22 08:44:24;;;;;;;12.15;8.00;;;;;;;;;;4917858;29;20032;-79
2021/09/22 08:46:50;;;;;;;12.80;7.82;;;;;;;;;;4915823;29;20700;-79
2021/09/22 08:49:16;;;;;;;11.63;8.10;;;;;;;;;;4914340;29;20028;-80
2021/09/22 08:51:43;;;;;;;10.95;7.97;;;;;;;;;;4912979;29;20091;-80
2021/09/22 08:54:09;;;;;;;15.20;8.43;;;;;;;;;;4914933;29;20047;-80
2021/09/22 08:56:39;;;;;;;14.73;8.90;;;;;;;;;;4911899;29;20040;-79
2021/09/22 08:59:05;;;;;;;11.60;8.35;;;;;;;;;;4898752;29;20080;-80
2021/09/22 09:01:31;;;;;;;16.58;8.45;;;;;;;;;;4902219;29;20119;-79
2021/09/22 09:03:58;;;;;;;14.45;9.18;;;;;;;;;;4912733;29;20042;-79
2021/09/22 09:06:25;;;;;;;13.70;8.35;;;;;;;;;;4913732;29;20145;-79
2021/09/22 09:08:53;;;;;;;14.07;8.55;;;;;;;;;;4908709;29;20051;-79
2021/09/22 09:11:26;;;;;;;17.58;8.65;;;;;;;;;;4914486;29;20039;-79
2021/09/22 09:13:53;;;;;;;16.77;8.63;;;;;;;;;;4910134;29;20444;-79
2021/09/22 09:16:21;;;;;;;14.98;9.02;;;;;;;;;;4914611;29;20050;-80
2021/09/22 09:18:51;;;;;;;13.43;8.93;;;;;;;;;;4911818;29;20514;-79
2021/09/22 09:21:17;;;;;;;11.98;7.85;;;;;;;;;;4905496;29;20037;-79
2021/09/22 09:24:02;;;;;;;18.20;9.25;;;;;;;;;;4915259;29;20036;-79
2021/09/22 09:26:30;;;;;;;22.17;10.70;;;;;;;;;;4911294;29;20162;-80
2021/09/22 09:28:59;;;;;;;19.88;10.85;;;;;;;;;;4912600;29;20024;-79
2021/09/22 09:31:32;;;;;;;19.77;9.82;;;;;;;;;;4906270;29;20079;-80
2021/09/22 09:34:00;;;;;;;14.45;9.65;;;;;;;;;;4914475;29;20082;-79
2021/09/22 09:36:30;;;;;;;19.95;10.60;;;;;;;;;;4914381;29;20091;-80
2021/09/22 09:38:56;;;;;;;18.70;9.95;;;;;;;;;;4914837;29;20036;-79
2021/09/22 09:41:37;;;;;;;19.35;9.35;;;;;;;;;;4916329;29;20070;-80
2021/09/22 09:44:05;;;;;;;14.85;8.68;;;;;;;;;;4915253;29;20112;-80
2021/09/22 09:46:31;;;;;;;15.63;9.32;;;;;;;;;;4910959;29;20044;-79
2021/09/22 09:49:03;;;;;;;18.92;9.73;;;;;;;;;;4915175;29;20032;-80
2021/09/22 09:51:33;;;;;;;13.60;8.50;;;;;;;;;;4913369;29;20068;-80
2021/09/22 09:54:10;;;;;;;17.17;9.82;;;;;;;;;;4914579;29;20035;-80
2021/09/22 09:56:36;;;;;;;15.00;9.98;;;;;;;;;;4909148;29;20060;-80
2021/09/22 09:59:03;;;;;;;16.60;9.75;;;;;;;;;;4914429;29;20040;-80
2021/09/22 10:01:37;;;;;;;14.75;8.95;;;;;;;;;;4914464;29;20068;-80
2021/09/22 10:04:04;;;;;;;12.98;9.50;;;;;;;;;;4911681;29;20029;-79
2021/09/22 10:06:31;;;;;;;15.35;10.10;;;;;;;;;;4914449;29;20071;-79
2021/09/22 10:08:57;;;;;;;15.13;8.57;;;;;;;;;;4906460;29;20036;-80
2021/09/22 10:11:23;;;;;;;16.10;8.57;;;;;;;;;;4907201;29;20048;-79
2021/09/22 10:13:50;;;;;;;14.68;8.38;;;;;;;;;;4910491;29;20039;-80
2021/09/22 10:16:16;;;;;;;13.35;8.07;;;;;;;;;;4914873;29;20059;-80
2021/09/22 10:18:42;;;;;;;10.18;7.63;;;;;;;;;;4913637;29;20107;-79
2021/09/22 10:21:09;;;;;;;16.15;7.63;;;;;;;;;;4914708;29;20040;-80
2021/09/22 10:23:35;;;;;;;12.27;6.72;;;;;;;;;;4911047;29;20047;-80
2021/09/22 10:26:02;;;;;;;10.90;7.32;;;;;;;;;;4908467;29;20443;-79
2021/09/22 10:28:37;;;;;;;13.63;8.38;;;;;;;;;;4905606;29;20111;-80
2021/09/22 10:31:03;;;;;;;10.73;7.18;;;;;;;;;;4923645;29;20036;-80
2021/09/22 10:33:31;;;;;;;11.02;6.97;;;;;;;;;;4913638;29;20047;-79
2021/09/22 10:36:01;;;;;;;12.20;8.02;;;;;;;;;;4906999;29;20550;-80
2021/09/22 10:38:38;;;;;;;11.65;6.60;;;;;;;;;;4900750;29;20085;-79
2021/09/22 10:41:04;;;;;;;11.32;6.75;;;;;;;;;;4912634;29;20035;-80
2021/09/22 10:43:46;;;;;;;10.15;7.57;;;;;;;;;;4913922;29;20035;-80
2021/09/22 10:46:12;;;;;;;;;;;;;;;;;;4910579;29;20384;-80
2021/09/22 10:48:57;;;;;;;10.20;6.65;;;;;;;;;;4908096;29;19919;-80
2021/09/22 10:51:44;;;;;;;9.77;6.30;;;;;;;;;;4912851;29;20511;-80
2021/09/22 10:54:14;;;;;;;9.15;4.85;;;;;;;;;;4907693;29;20368;-79
2021/09/22 10:57:00;;;;;;;10.18;5.45;;;;;;;;;;4904589;29;20088;-80
2021/09/22 10:59:27;;;;;;;8.73;5.07;;;;;;;;;;4912948;29;20107;-80
2021/09/22 11:01:53;;;;;;;7.18;4.97;;;;;;;;;;4913911;29;20536;-80
2021/09/22 11:04:20;;;;;;;11.95;7.22;;;;;;;;;;4913580;29;20052;-80
2021/09/22 11:06:47;;;;;;;13.98;6.45;;;;;;;;;;4908942;29;20032;-80
2021/09/22 11:09:33;;;;;;;11.95;5.97;;;;;;;;;;4900234;29;20020;-80
2021/09/22 11:11:59;;;;;;;8.15;6.03;;;;;;;;;;4885917;29;20051;-79
2021/09/22 11:14:29;;;;;;;10.68;6.72;;;;;;;;;;4912685;29;20048;-80
2021/09/22 11:16:56;;;;;;;11.20;7.95;;;;;;;;;;4909567;29;20028;-80
2021/09/22 11:19:22;;;;;;;9.25;6.47;;;;;;;;;;4902864;29;20491;-79
2021/09/22 11:21:49;;;;;;;11.02;6.50;;;;;;;;;;4914457;29;20046;-80
2021/09/22 11:24:16;;;;;;;14.27;6.22;;;;;;;;;;4911072;29;20036;-79
2021/09/22 11:26:51;;;;;;;11.68;5.93;;;;;;;;;;4910821;29;20133;-79
2021/09/22 11:29:32;;;;;;;10.80;6.43;;;;;;;;;;4906881;29;20032;-80
2021/09/22 11:31:59;;;;;;;8.38;6.00;;;;;;;;;;4904743;29;20036;-79
2021/09/22 11:34:29;;;;;;;10.00;7.03;;;;;;;;;;4911052;29;20087;-79
2021/09/22 11:37:09;;;;;;;13.05;6.80;;;;;;;;;;4904797;29;20035;-80
2021/09/22 11:39:36;;;;;;;9.43;6.30;;;;;;;;;;4904059;29;20048;-79
2021/09/22 11:42:03;;;;;;;7.97;6.10;;;;;;;;;;4902549;29;20036;-80
2021/09/22 11:44:30;;;;;;;8.98;5.57;;;;;;;;;;4910155;29;20075;-80
2021/09/22 11:46:58;;;;;;;14.23;5.82;;;;;;;;;;4908061;29;20064;-79
2021/09/22 11:49:43;;;;;;;12.18;7.45;;;;;;;;;;4906727;29;20040;-80
2021/09/22 11:52:12;;;;;;;7.85;5.50;;;;;;;;;;4899581;29;20057;-79
2021/09/22 11:54:41;;;;;;;10.85;5.68;;;;;;;;;;4920818;29;20163;-80
2021/09/22 11:57:11;;;;;;;8.90;6.50;;;;;;;;;;4911271;29;20036;-80
2021/09/22 11:59:38;;;;;;;10.65;6.30;;;;;;;;;;4913296;29;20503;-79
2021/09/22 12:02:04;;;;;;;8.10;6.25;;;;;;;;;;4916187;29;20122;-80
2021/09/22 12:04:36;;;;;;;8.57;6.60;;;;;;;;;;4919162;29;20547;-79
2021/09/22 12:07:04;;;;;;;11.13;6.50;;;;;;;;;;4910466;29;20056;-80
2021/09/22 12:09:40;;;;;;;10.70;7.05;;;;;;;;;;4914065;29;20058;-80
2021/09/22 12:12:13;;;;;;;9.38;6.72;;;;;;;;;;4912026;29;20094;-80
2021/09/22 12:14:45;;;;;;;9.55;5.45;;;;;;;;;;4906580;29;20083;-80
2021/09/22 12:17:12;;;;;;;9.23;6.10;;;;;;;;;;4913391;29;20139;-79
2021/09/22 12:19:41;;;;;;;9.18;6.68;;;;;;;;;;4912710;29;20083;-80
2021/09/22 12:22:08;;;;;;;9.48;6.93;;;;;;;;;;4908800;29;20036;-79
2021/09/22 12:24:35;;;;;;;9.95;6.68;;;;;;;;;;4926076;29;20060;-80
2021/09/22 12:27:01;;;;;;;12.38;7.82;;;;;;;;;;4908220;29;20032;-80
2021/09/22 12:29:27;;;;;;;11.43;7.57;;;;;;;;;;4902702;29;20041;-80
2021/09/22 12:31:53;;;;;;;10.23;7.38;;;;;;;;;;4917193;29;20060;-80
2021/09/22 12:34:27;;;;;;;9.45;6.85;;;;;;;;;;4912557;29;20063;-79
2021/09/22 12:36:54;;;;;;;11.07;7.03;;;;;;;;;;4909321;29;20119;-80
2021/09/22 12:39:23;;;;;;;8.75;6.88;;;;;;;;;;4916327;29;20475;-80
2021/09/22 12:41:59;;;;;;;8.88;4.82;;;;;;;;;;4917362;29;20035;-80
2021/09/22 12:44:25;;;;;;;7.10;5.03;;;;;;;;;;4909968;29;20033;-80
2021/09/22 12:46:51;;;;;;;7.38;4.80;;;;;;;;;;4911617;29;20035;-79
2021/09/22 12:49:19;;;;;;;8.25;4.43;;;;;;;;;;4905103;29;20024;-80
2021/09/22 12:51:50;;;;;;;10.73;6.65;;;;;;;;;;4907065;29;20053;-79
2021/09/22 12:54:16;;;;;;;8.50;5.97;;;;;;;;;;4903941;29;20052;-79
2021/09/22 12:56:42;;;;;;;9.95;6.10;;;;;;;;;;4915800;29;20685;-79
2021/09/22 12:59:28;;;;;;;9.75;5.90;;;;;;;;;;4914992;29;20475;-80
2021/09/22 13:01:54;;;;;;;13.20;7.18;;;;;;;;;;4915807;29;20047;-80
2021/09/22 13:04:31;;;;;;;8.98;5.18;;;;;;;;;;4915030;29;20031;-80
2021/09/22 13:06:58;;;;;;;9.90;6.90;;;;;;;;;;4904452;29;20025;-79
2021/09/22 13:09:34;;;;;;;12.32;6.43;;;;;;;;;;4910724;29;20157;-80
2021/09/22 13:12:01;;;;;;;8.20;5.68;;;;;;;;;;4911456;29;20544;-80
2021/09/22 13:14:35;;;;;;;8.00;5.82;;;;;;;;;;4905450;29;20054;-80
2021/09/22 13:17:01;;;;;;;8.63;5.30;;;;;;;;;;4915107;29;20055;-80
2021/09/22 13:19:29;;;;;;;11.55;5.82;;;;;;;;;;4914627;29;20051;-80
2021/09/22 13:21:57;;;;;;;8.57;6.80;;;;;;;;;;4915489;29;20123;-80
2021/09/22 13:24:24;;;;;;;9.35;6.38;;;;;;;;;;4909369;29;20036;-80
2021/09/22 13:26:51;;;;;;;10.00;6.40;;;;;;;;;;4914953;29;20204;-80
2021/09/22 13:29:18;;;;;;;11.25;7.20;;;;;;;;;;4915351;29;20024;-80
2021/09/22 13:31:51;;;;;;;11.27;7.40;;;;;;;;;;4919457;29;20032;-79
2021/09/22 13:34:18;;;;;;;12.15;6.55;;;;;;;;;;4914718;29;20870;-80
2021/09/22 13:36:45;;;;;;;8.05;4.93;;;;;;;;;;4914471;29;20036;-80
2021/09/22 13:39:12;;;;;;;12.73;5.07;;;;;;;;;;4907219;29;20032;-80
2021/09/22 13:41:38;;;;;;;9.05;6.28;;;;;;;;;;4906877;29;20044;-80
2021/09/22 13:44:05;;;;;;;7.50;5.22;;;;;;;;;;4910889;29;20148;-79
2021/09/22 13:46:32;;;;;;;8.23;4.78;;;;;;;;;;4905490;29;20028;-79
2021/09/22 13:48:59;;;;;;;7.07;4.80;;;;;;;;;;4914000;29;20032;-80
2021/09/22 13:51:26;;;;;;;7.60;6.32;;;;;;;;;;4913917;29;20871;-80
2021/09/22 13:53:52;;;;;;;10.23;6.55;;;;;;;;;;4912794;29;20032;-80
2021/09/22 13:56:18;;;;;;;8.77;6.30;;;;;;;;;;4905926;29;20051;-79
2021/09/22 13:58:44;;;;;;;9.07;6.00;;;;;;;;;;4911143;29;20608;-80
2021/09/22 14:01:10;;;;;;;6.97;5.00;;;;;;;;;;4904619;29;20119;-80
2021/09/22 14:03:37;;;;;;;9.85;5.95;;;;;;;;;;4911986;29;20042;-80
2021/09/22 14:06:03;;;;;;;8.13;5.80;;;;;;;;;;4912534;29;20040;-80
2021/09/22 14:08:30;;;;;;;9.25;5.97;;;;;;;;;;4914672;29;20032;-80
2021/09/22 14:10:57;;;;;;;11.02;5.88;;;;;;;;;;4915011;29;20040;-80
2021/09/22 14:13:23;;;;;;;7.43;5.68;;;;;;;;;;4908971;29;20039;-80
2021/09/22 14:15:49;;;;;;;8.98;5.40;;;;;;;;;;4913983;29;20047;-80
2021/09/22 14:18:17;;;;;;;9.27;5.68;;;;;;;;;;4912384;29;20028;-80
2021/09/22 14:20:44;;;;;;;9.07;5.22;;;;;;;;;;4909055;29;20048;-80
2021/09/22 14:23:12;;;;;;;14.88;6.15;;;;;;;;;;4915045;29;20028;-79
2021/09/22 14:25:38;;;;;;;7.10;5.55;;;;;;;;;;4914697;29;20067;-80
2021/09/22 14:28:05;;;;;;;8.77;5.55;;;;;;;;;;4913245;29;20058;-80
2021/09/22 14:30:31;;;;;;;8.13;5.10;;;;;;;;;;4914262;29;20036;-79
2021/09/22 14:32:58;;;;;;;6.50;4.68;;;;;;;;;;4899950;29;20115;-79
2021/09/22 14:35:24;;;;;;;9.55;5.05;;;;;;;;;;4912118;29;20050;-80